createdAt,value
2019-04-21T10:52:01.989Z,33.75
2019-04-21T10:53:02.949Z,33.75
2019-04-21T10:55:11.244Z,101.25
2019-04-21T10:56:09.639Z,129.38
2019-04-21T10:57:50.478Z,129.38
2019-04-21T10:58:49.995Z,135.00
2019-04-21T11:00:44.112Z,135.00
2019-04-21T11:01:45.183Z,135.00
2019-04-21T11:03:38.348Z,140.63
2019-04-21T11:04:40.189Z,140.63
2019-04-21T11:06:30.998Z,140.63
2019-04-21T11:07:34.440Z,135.00
2019-04-21T11:09:26.233Z,135.00
2019-04-21T11:10:25.781Z,135.00
2019-04-21T11:12:19.753Z,140.63
2019-04-21T11:13:18.843Z,146.25
2019-04-21T11:15:12.724Z,146.25
2019-04-21T11:16:13.101Z,146.25
2019-04-21T11:18:06.149Z,151.88
2019-04-21T11:19:06.357Z,157.50
2019-04-21T11:21:00.807Z,157.50
2019-04-21T11:22:01.058Z,163.13
2019-04-21T11:23:54.733Z,168.75
2019-04-21T11:24:54.716Z,174.38
2019-04-21T11:26:48.096Z,174.38
2019-04-21T11:27:49.060Z,180.00
2019-04-21T11:29:41.529Z,219.38
2019-04-21T11:30:42.435Z,213.75
2019-04-21T11:32:35.049Z,230.63
2019-04-21T11:33:35.588Z,264.38
2019-04-21T11:35:28.104Z,213.75
2019-04-21T11:36:29.208Z,202.50
2019-04-21T11:38:24.880Z,202.50
2019-04-21T11:39:29.218Z,191.25
2019-04-21T11:41:16.094Z,191.25
2019-04-21T11:42:15.769Z,191.25
2019-04-21T11:45:55.527Z,213.75
2019-04-21T11:46:42.916Z,213.75
2019-04-21T11:51:56.389Z,219.38
2019-04-21T11:52:55.168Z,213.75
2019-04-21T11:54:50.871Z,208.13
2019-04-21T11:55:51.804Z,213.75
2019-04-21T11:57:46.978Z,208.13
2019-04-21T11:58:43.932Z,213.75
2019-04-21T12:00:36.240Z,230.63
2019-04-21T12:01:36.224Z,264.38
2019-04-21T12:03:29.631Z,286.88
2019-04-21T12:04:29.603Z,230.63
2019-04-21T12:06:33.509Z,236.25
2019-04-21T12:07:25.054Z,258.75
2019-04-21T12:09:17.269Z,286.88
2019-04-21T12:10:17.683Z,236.25
2019-04-21T12:12:11.750Z,230.63
2019-04-21T12:13:12.063Z,230.63
2019-04-21T12:15:06.090Z,253.13
2019-04-21T12:16:05.244Z,281.25
2019-04-21T12:17:59.554Z,275.63
2019-04-21T12:18:58.809Z,281.25
2019-04-21T12:20:51.711Z,241.88
2019-04-21T12:22:02.847Z,236.25
2019-04-21T12:23:45.974Z,281.25
2019-04-21T12:24:47.034Z,258.75
2019-04-21T12:26:40.144Z,247.50
2019-04-21T12:27:40.070Z,258.75
2019-04-21T12:29:33.596Z,270.00
2019-04-21T12:30:33.543Z,303.75
2019-04-21T12:32:26.360Z,793.13
2019-04-21T12:33:25.978Z,534.38
2019-04-21T12:34:26.018Z,388.13
2019-04-21T12:35:26.200Z,416.25
2019-04-21T12:36:25.946Z,669.38
2019-04-21T12:37:26.879Z,551.25
2019-04-21T12:38:36.486Z,1816.88
2019-04-21T12:39:27.093Z,2480.63
2019-04-21T12:40:26.376Z,2784.38
2019-04-21T12:41:26.678Z,2446.88
2019-04-21T12:42:26.962Z,2238.75
2019-04-21T12:43:26.448Z,2632.50
2019-04-21T12:44:25.855Z,1935.00
2019-04-21T12:45:26.150Z,871.88
2019-04-21T12:46:25.905Z,2401.88
2019-04-21T12:47:25.943Z,1293.75
2019-04-21T12:48:26.241Z,2131.88
2019-04-21T12:49:25.800Z,1575.00
2019-04-21T12:50:25.947Z,1248.75
2019-04-21T12:51:26.043Z,1462.50
2019-04-21T12:52:25.771Z,2390.63
2019-04-21T12:53:25.760Z,1563.75
2019-04-21T12:54:25.930Z,871.88
2019-04-21T12:55:30.574Z,2334.38
2019-04-21T12:56:25.732Z,630.00
2019-04-21T12:57:25.723Z,2137.50
2019-04-21T12:58:25.713Z,961.88
2019-04-21T12:59:28.116Z,3060.00
2019-04-21T13:00:26.886Z,3543.75
2019-04-21T13:01:25.687Z,3684.38
2019-04-21T13:02:25.708Z,3718.13
2019-04-21T13:03:27.416Z,3729.38
2019-04-21T13:04:25.987Z,3808.13
2019-04-21T13:05:25.657Z,3948.75
2019-04-21T13:06:25.642Z,3988.13
2019-04-21T13:07:25.827Z,3881.25
2019-04-21T13:08:25.627Z,3763.13
2019-04-21T13:09:27.480Z,3768.75
2019-04-21T13:10:26.412Z,3858.75
2019-04-21T13:11:25.640Z,3875.63
2019-04-21T13:12:26.809Z,3847.50
2019-04-21T13:13:26.169Z,3898.13
2019-04-21T13:14:26.152Z,3841.88
2019-04-21T13:15:25.578Z,3780.00
2019-04-21T13:16:25.573Z,3808.13
2019-04-21T13:17:25.651Z,3751.88
2019-04-21T13:18:26.927Z,3645.00
2019-04-21T13:19:25.554Z,3583.13
2019-04-21T13:20:25.548Z,3678.75
2019-04-21T13:21:25.542Z,3723.75
2019-04-21T13:22:25.964Z,3268.13
2019-04-21T13:23:27.000Z,3555.00
2019-04-21T13:24:26.148Z,3487.50
2019-04-21T13:25:25.645Z,3560.63
2019-04-21T13:26:35.829Z,3532.50
2019-04-21T13:27:26.883Z,680.63
2019-04-21T13:29:57.641Z,1749.38
2019-04-21T13:30:58.209Z,2098.13
2019-04-21T13:32:53.138Z,2390.63
2019-04-21T13:33:52.290Z,208.13
2019-04-21T13:35:46.727Z,1355.63
2019-04-21T13:36:45.566Z,2126.25
2019-04-21T13:38:50.487Z,3605.63
2019-04-21T13:40:01.499Z,3442.50
2019-04-21T13:41:42.888Z,3515.63
2019-04-21T13:42:38.366Z,3526.88
2019-04-21T13:44:26.697Z,3493.13
2019-04-21T13:45:25.961Z,3515.63
2019-04-21T13:47:18.771Z,3296.25
2019-04-21T13:48:18.957Z,3605.63
2019-04-21T13:50:13.343Z,3436.88
2019-04-21T13:51:13.301Z,3436.88
2019-04-21T13:53:06.780Z,3375.00
2019-04-21T13:54:05.463Z,3155.63
2019-04-21T13:56:00.301Z,275.63
2019-04-21T13:56:58.830Z,286.88
2019-04-21T13:58:52.634Z,3166.88
2019-04-21T13:59:53.126Z,3183.75
2019-04-21T14:01:47.834Z,3138.75
2019-04-21T14:02:46.969Z,3015.00
2019-04-21T14:04:41.288Z,2936.25
2019-04-21T14:05:42.341Z,2986.88
2019-04-21T14:07:34.469Z,2925.00
2019-04-21T14:08:34.278Z,281.25
2019-04-21T14:10:29.240Z,2925.00
2019-04-21T14:11:29.277Z,2812.50
2019-04-21T14:13:23.046Z,2778.75
2019-04-21T14:14:23.990Z,2733.75
2019-04-21T14:16:16.412Z,444.38
2019-04-21T14:17:17.010Z,2255.63
2019-04-21T14:19:09.838Z,2430.00
2019-04-21T14:20:10.894Z,2430.00
2019-04-21T14:22:03.473Z,2508.75
2019-04-21T14:23:13.483Z,2458.13
2019-04-21T14:24:56.492Z,2210.63
2019-04-21T14:25:57.514Z,2233.13
2019-04-21T14:26:56.485Z,303.75
2019-04-21T14:27:57.792Z,2272.50
2019-04-21T14:28:56.802Z,2143.13
2019-04-21T14:29:57.672Z,2041.88
2019-04-21T14:30:56.560Z,2148.75
2019-04-21T14:31:57.979Z,2216.25
2019-04-21T14:32:56.479Z,213.75
2019-04-21T14:33:56.483Z,2261.25
2019-04-21T14:34:56.703Z,2379.38
2019-04-21T14:35:56.850Z,2328.75
2019-04-21T14:36:56.867Z,2323.13
2019-04-21T14:37:56.643Z,2205.00
2019-04-21T14:38:56.685Z,258.75
2019-04-21T14:40:06.165Z,2154.38
2019-04-21T14:40:56.596Z,208.13
2019-04-21T14:41:56.474Z,2013.75
2019-04-21T14:42:56.471Z,191.25
2019-04-21T14:43:56.927Z,2160.00
2019-04-21T14:44:56.849Z,2278.13
2019-04-21T14:45:56.850Z,2244.38
2019-04-21T14:46:57.472Z,2283.75
2019-04-21T14:47:56.713Z,2373.75
2019-04-21T14:48:57.243Z,2441.25
2019-04-21T14:49:57.412Z,2424.38
2019-04-21T14:50:58.057Z,2379.38
2019-04-21T14:51:56.892Z,2390.63
2019-04-21T14:52:57.086Z,2475.00
2019-04-21T14:53:56.506Z,2345.63
2019-04-21T14:54:56.506Z,2356.88
2019-04-21T14:55:57.503Z,2295.00
2019-04-21T14:56:57.662Z,2261.25
2019-04-21T14:57:57.110Z,2289.38
2019-04-21T14:58:58.697Z,2295.00
2019-04-21T14:59:57.327Z,2165.63
2019-04-21T15:00:57.770Z,2103.75
2019-04-21T15:01:57.839Z,2199.38
2019-04-21T15:02:56.449Z,2131.88
2019-04-21T15:03:57.545Z,2081.25
2019-04-21T15:04:57.814Z,1642.50
2019-04-21T15:05:57.635Z,1912.50
2019-04-21T15:06:59.315Z,1940.63
2019-04-21T15:07:57.302Z,2002.50
2019-04-21T15:08:57.519Z,1996.88
2019-04-21T15:10:04.731Z,2002.50
2019-04-21T15:10:56.888Z,1951.88
2019-04-21T15:11:56.441Z,1923.75
2019-04-21T15:12:56.445Z,1929.38
2019-04-21T15:13:57.767Z,1918.13
2019-04-21T15:14:58.023Z,1940.63
2019-04-21T15:15:56.444Z,1918.13
2019-04-21T15:16:56.861Z,1895.63
2019-04-21T15:17:57.821Z,1816.88
2019-04-21T15:18:56.807Z,1721.25
2019-04-21T15:20:04.045Z,1749.38
2019-04-21T15:20:57.352Z,1867.50
2019-04-21T15:21:56.795Z,1845.00
2019-04-21T15:22:56.609Z,1710.00
2019-04-21T15:23:56.444Z,1760.63
2019-04-21T15:24:56.434Z,1715.63
2019-04-21T15:25:56.604Z,1423.13
2019-04-21T15:26:56.892Z,1226.25
2019-04-21T15:27:56.904Z,1175.63
2019-04-21T15:28:57.090Z,1181.25
2019-04-21T15:29:56.497Z,1203.75
2019-04-21T15:30:56.687Z,1248.75
2019-04-21T15:31:56.838Z,1299.38
2019-04-21T15:32:56.430Z,1406.25
2019-04-21T15:33:57.105Z,1569.38
2019-04-21T15:34:56.451Z,1800.00
2019-04-21T15:35:57.477Z,2041.88
2019-04-21T15:36:57.819Z,2109.38
2019-04-21T15:37:57.917Z,1980.00
2019-04-21T15:38:56.431Z,1833.75
2019-04-21T15:39:56.502Z,1721.25
2019-04-21T15:41:00.734Z,1648.13
2019-04-21T15:41:56.793Z,1490.63
2019-04-21T15:42:56.850Z,1321.88
2019-04-21T15:43:57.302Z,1209.38
2019-04-21T15:44:56.824Z,1130.63
2019-04-21T15:45:57.124Z,1096.88
2019-04-21T15:46:57.648Z,1108.13
2019-04-21T15:47:56.426Z,1125.00
2019-04-21T15:48:57.131Z,1130.63
2019-04-21T15:50:02.454Z,1080.00
2019-04-21T15:50:56.748Z,1029.38
2019-04-21T15:51:58.010Z,135.00
2019-04-21T15:52:56.421Z,922.50
2019-04-21T15:53:57.584Z,888.75
2019-04-21T15:54:56.893Z,770.63
2019-04-21T15:55:57.013Z,455.63
2019-04-21T15:56:56.592Z,236.25
2019-04-21T15:57:56.541Z,185.63
2019-04-21T15:58:56.750Z,163.13
2019-04-21T15:59:56.415Z,151.88
2019-04-21T16:00:56.576Z,140.63
2019-04-21T16:01:56.804Z,112.50
2019-04-21T16:02:56.414Z,90.00
2019-04-21T16:03:58.763Z,73.13
2019-04-21T16:04:56.790Z,84.38
2019-04-21T16:05:56.406Z,90.00
2019-04-21T16:06:57.459Z,90.00
2019-04-21T16:07:56.399Z,78.75
2019-04-21T16:08:59.244Z,78.75
2019-04-21T16:09:57.617Z,73.13
2019-04-21T16:11:00.164Z,73.13
2019-04-21T16:11:57.835Z,84.38
2019-04-21T16:12:58.014Z,101.25
2019-04-21T16:13:57.470Z,95.63
2019-04-21T16:14:56.588Z,95.63
2019-04-21T16:15:56.738Z,67.50
2019-04-21T16:16:57.104Z,61.88
2019-04-21T16:17:57.204Z,61.88
2019-04-21T16:18:56.472Z,61.88
2019-04-21T16:19:56.353Z,61.88
2019-04-21T16:20:57.654Z,67.50
2019-04-21T16:21:56.783Z,61.88
2019-04-21T16:22:56.854Z,56.25
2019-04-21T16:23:56.536Z,61.88
2019-04-21T16:24:56.874Z,56.25
2019-04-21T16:25:56.999Z,50.63
2019-04-21T16:26:56.570Z,61.88
2019-04-21T16:27:57.262Z,67.50
2019-04-21T16:28:57.429Z,50.63
2019-04-21T16:29:57.655Z,61.88
2019-04-21T16:30:56.295Z,61.88
2019-04-21T16:31:57.334Z,61.88
2019-04-21T16:32:56.452Z,61.88
2019-04-21T16:33:56.736Z,61.88
2019-04-21T16:35:01.497Z,61.88
2019-04-21T16:35:57.898Z,61.88
2019-04-21T16:36:56.257Z,61.88
2019-04-21T16:37:57.868Z,56.25
2019-04-21T16:38:57.477Z,56.25
2019-04-21T16:39:56.240Z,56.25
2019-04-21T16:41:01.005Z,56.25
2019-04-21T16:41:56.354Z,56.25
2019-04-21T16:42:56.350Z,67.50
2019-04-21T16:43:57.096Z,67.50
2019-04-21T16:44:56.823Z,61.88
2019-04-21T16:45:57.128Z,56.25
2019-04-21T16:46:56.189Z,61.88
2019-04-21T16:47:57.415Z,67.50
2019-04-21T16:48:56.177Z,67.50
2019-04-21T16:49:56.170Z,61.88
2019-04-21T16:50:57.411Z,61.88
2019-04-21T16:51:56.152Z,61.88
2019-04-21T16:52:56.291Z,61.88
2019-04-21T16:53:56.135Z,61.88
2019-04-21T16:54:56.151Z,61.88
2019-04-21T16:55:57.323Z,61.88
2019-04-21T16:56:57.538Z,61.88
2019-04-21T16:58:04.582Z,61.88
2019-04-21T16:58:56.730Z,61.88
2019-04-21T16:59:56.839Z,61.88
2019-04-21T17:01:01.715Z,61.88
2019-04-21T17:01:56.534Z,61.88
2019-04-21T17:02:56.701Z,61.88
2019-04-21T17:03:56.064Z,61.88
2019-04-21T17:04:56.300Z,56.25
2019-04-21T17:05:56.295Z,56.25
2019-04-21T17:06:56.038Z,56.25
2019-04-21T17:07:56.019Z,56.25
2019-04-21T17:08:56.752Z,56.25
2019-04-21T17:09:56.866Z,56.25
2019-04-21T17:11:06.393Z,56.25
2019-04-21T17:11:59.842Z,50.63
2019-04-21T17:12:56.130Z,50.63
2019-04-21T17:13:56.596Z,50.63
2019-04-21T17:15:10.397Z,50.63
2019-04-21T17:16:16.866Z,50.63
2019-04-21T17:17:18.082Z,50.63
2019-04-21T17:18:16.220Z,45.00
2019-04-21T17:19:05.322Z,45.00
2019-04-21T17:20:13.009Z,45.00
2019-04-21T17:21:00.624Z,45.00
2019-04-21T17:21:57.501Z,45.00
2019-04-21T17:22:55.899Z,45.00
2019-04-21T17:23:56.656Z,39.38
2019-04-21T17:24:56.086Z,39.38
2019-04-21T17:25:57.095Z,39.38
2019-04-21T17:26:57.352Z,39.38
2019-04-21T17:27:56.889Z,39.38
2019-04-21T17:28:56.592Z,39.38
2019-04-21T17:29:56.746Z,39.38
2019-04-21T17:30:55.808Z,33.75
2019-04-21T17:31:57.278Z,33.75
2019-04-21T17:32:57.261Z,33.75
2019-04-21T17:34:04.963Z,33.75
2019-04-21T17:34:56.238Z,33.75
2019-04-21T17:35:56.797Z,33.75
2019-04-21T17:36:57.136Z,33.75
2019-04-21T17:37:56.248Z,28.13
2019-04-21T17:38:55.826Z,28.13
2019-04-21T17:39:56.850Z,28.13
2019-04-21T17:40:59.599Z,28.13
2019-04-21T17:42:05.693Z,28.13
2019-04-21T17:43:01.956Z,28.13
2019-04-21T17:43:56.199Z,28.13
2019-04-21T17:44:55.668Z,28.13
2019-04-21T17:45:55.657Z,22.50
2019-04-21T17:47:01.521Z,22.50
2019-04-21T17:48:02.377Z,22.50
2019-04-21T17:48:56.785Z,22.50
2019-04-21T17:49:55.616Z,22.50
2019-04-21T17:50:55.723Z,22.50
2019-04-21T17:52:00.354Z,22.50
2019-04-21T17:53:00.813Z,22.50
2019-04-21T17:53:58.682Z,22.50
2019-04-21T17:55:06.222Z,16.88
2019-04-21T17:56:18.781Z,16.88
2019-04-21T17:57:17.936Z,16.88
2019-04-21T17:58:11.582Z,16.88
2019-04-21T17:59:23.654Z,16.88
2019-04-21T18:00:26.129Z,16.88
2019-04-21T18:01:19.380Z,16.88
2019-04-21T18:02:21.457Z,16.88
2019-04-21T18:03:27.518Z,16.88
2019-04-21T18:04:15.391Z,16.88
2019-04-21T18:05:15.226Z,11.25
2019-04-21T18:06:05.307Z,11.25
2019-04-21T18:07:08.665Z,11.25
2019-04-21T18:08:19.252Z,11.25
2019-04-21T18:09:21.991Z,11.25
2019-04-21T18:10:19.109Z,11.25
2019-04-21T18:11:05.754Z,11.25
2019-04-21T18:12:12.254Z,11.25
2019-04-21T18:13:01.335Z,11.25
2019-04-21T18:13:55.594Z,11.25
2019-04-21T18:15:10.196Z,11.25
2019-04-21T18:16:08.293Z,5.63
2019-04-21T18:16:56.264Z,5.63
2019-04-21T18:17:56.489Z,5.63
2019-04-21T18:18:55.298Z,5.63
2019-04-21T18:19:57.110Z,5.63
2019-04-21T18:20:56.658Z,5.63
2019-04-21T18:21:59.828Z,5.63
2019-04-21T18:22:56.910Z,5.63
2019-04-21T18:24:05.780Z,5.63
2019-04-21T18:25:03.399Z,5.63
2019-04-21T18:26:02.909Z,5.63
2019-04-21T18:26:59.979Z,5.63
2019-04-21T18:27:56.401Z,0.00
2019-04-21T18:28:57.301Z,0.00
2019-04-21T18:29:55.174Z,0.00
2019-04-21T18:30:56.482Z,0.00
2019-04-21T18:31:56.286Z,0.00
2019-04-21T18:32:57.910Z,0.00
2019-04-21T18:35:01.563Z,0.00
2019-04-21T18:36:22.538Z,0.00
2019-04-21T18:36:57.416Z,0.00
2019-04-21T18:38:05.726Z,0.00
2019-04-21T18:39:09.854Z,0.00
2019-04-21T18:40:05.725Z,0.00
2019-04-21T18:40:56.483Z,0.00
2019-04-21T18:42:09.294Z,0.00
2019-04-21T18:43:27.510Z,0.00
2019-04-21T18:44:23.423Z,0.00
2019-04-21T18:45:36.780Z,0.00
2019-04-21T18:46:20.533Z,0.00
2019-04-21T18:47:16.392Z,0.00
2019-04-21T18:48:04.834Z,0.00
2019-04-21T18:48:57.927Z,0.00
2019-04-21T18:49:56.125Z,0.00
2019-04-21T18:51:02.687Z,0.00
2019-04-21T18:52:02.757Z,0.00
2019-04-21T18:53:06.040Z,0.00
2019-04-21T18:54:15.152Z,0.00
2019-04-21T18:55:08.093Z,0.00
2019-04-21T18:56:02.126Z,0.00
2019-04-21T18:57:05.364Z,0.00
2019-04-21T18:57:56.338Z,0.00
2019-04-21T18:58:55.965Z,0.00
2019-04-21T18:59:55.317Z,0.00
2019-04-21T19:01:03.198Z,0.00
2019-04-21T19:02:02.105Z,0.00
2019-04-21T19:02:57.883Z,0.00
2019-04-21T19:03:56.179Z,0.00
2019-04-21T19:05:06.064Z,0.00
2019-04-21T19:06:01.891Z,0.00
2019-04-21T19:07:10.840Z,0.00
2019-04-21T19:08:14.926Z,0.00
2019-04-21T19:09:11.296Z,0.00
2019-04-21T19:10:21.986Z,0.00
2019-04-21T19:11:15.086Z,0.00
2019-04-21T19:12:16.715Z,0.00
2019-04-21T19:14:30.384Z,0.00
2019-04-21T19:15:13.681Z,0.00
2019-04-21T19:16:28.393Z,0.00
2019-04-21T19:18:32.489Z,0.00
2019-04-21T19:19:34.162Z,0.00
2019-04-21T19:21:11.173Z,0.00
2019-04-21T19:22:13.595Z,0.00
2019-04-21T19:23:13.963Z,0.00
2019-04-21T19:24:41.240Z,0.00
2019-04-21T19:25:15.976Z,0.00
2019-04-21T19:26:25.154Z,0.00
2019-04-21T19:27:19.196Z,0.00
2019-04-21T19:28:13.421Z,0.00
2019-04-21T19:29:19.690Z,0.00
2019-04-21T19:30:24.892Z,0.00
2019-04-21T19:31:15.936Z,0.00
2019-04-21T19:32:13.858Z,0.00
2019-04-21T19:33:13.177Z,0.00
2019-04-21T19:34:02.584Z,0.00
2019-04-21T19:34:59.473Z,0.00
2019-04-21T19:35:55.384Z,0.00
2019-04-21T19:37:03.070Z,0.00
2019-04-21T19:38:03.613Z,0.00
2019-04-21T19:39:03.833Z,0.00
2019-04-21T19:40:09.527Z,0.00
2019-04-21T19:41:10.359Z,0.00
2019-04-21T19:42:02.942Z,0.00
2019-04-21T19:43:03.616Z,0.00
2019-04-21T19:44:12.019Z,0.00
2019-04-21T19:45:10.749Z,0.00
2019-04-21T19:46:15.699Z,0.00
2019-04-21T19:47:10.786Z,0.00
2019-04-21T19:48:15.335Z,0.00
2019-04-21T19:49:24.967Z,0.00
2019-04-21T19:50:12.035Z,0.00
2019-04-21T19:51:10.611Z,0.00
2019-04-21T19:52:01.998Z,0.00
2019-04-21T19:53:03.442Z,0.00
2019-04-21T19:54:05.652Z,0.00
2019-04-21T19:54:54.989Z,0.00
2019-04-21T19:55:54.213Z,0.00
2019-04-21T19:56:55.393Z,0.00
2019-04-21T19:57:54.780Z,0.00
2019-04-21T19:58:54.998Z,0.00
2019-04-21T19:59:58.572Z,0.00
2019-04-21T20:00:57.374Z,0.00
2019-04-21T20:01:54.177Z,0.00
2019-04-21T20:02:54.494Z,0.00
2019-04-21T20:03:57.109Z,0.00
2019-04-21T20:05:03.441Z,0.00
2019-04-21T20:06:00.909Z,0.00
2019-04-21T20:07:02.744Z,0.00
2019-04-21T20:08:12.913Z,0.00
2019-04-21T20:09:09.608Z,0.00
2019-04-21T20:10:14.324Z,0.00
2019-04-21T20:11:10.216Z,0.00
2019-04-21T20:12:13.146Z,0.00
2019-04-21T20:13:07.702Z,0.00
2019-04-21T20:14:38.986Z,0.00
2019-04-21T20:15:20.297Z,0.00
2019-04-21T20:16:13.654Z,0.00
2019-04-21T20:17:08.243Z,0.00
2019-04-21T20:18:08.974Z,0.00
2019-04-21T20:18:59.412Z,0.00
2019-04-21T20:19:54.135Z,0.00
2019-04-21T20:20:54.302Z,0.00
2019-04-21T20:21:53.762Z,0.00
2019-04-21T20:22:54.297Z,0.00
2019-04-21T20:23:57.531Z,0.00
2019-04-21T20:25:00.059Z,0.00
2019-04-21T20:25:58.541Z,0.00
2019-04-21T20:27:02.287Z,0.00
2019-04-21T20:28:01.596Z,0.00
2019-04-21T20:29:04.557Z,0.00
2019-04-21T20:30:07.278Z,0.00
2019-04-21T20:31:14.685Z,0.00
2019-04-21T20:32:23.368Z,0.00
2019-04-21T20:34:10.758Z,0.00
2019-04-21T20:35:16.828Z,0.00
2019-04-21T20:36:20.224Z,0.00
2019-04-21T20:37:14.850Z,0.00
2019-04-21T20:38:09.299Z,0.00
2019-04-21T20:39:01.751Z,0.00
2019-04-21T20:40:00.711Z,0.00
2019-04-21T20:41:02.246Z,0.00
2019-04-21T20:42:11.309Z,0.00
2019-04-21T20:43:11.321Z,0.00
2019-04-21T20:44:11.945Z,0.00
2019-04-21T20:45:28.967Z,0.00
2019-04-21T20:46:07.901Z,0.00
2019-04-21T20:47:08.061Z,0.00
2019-04-21T20:47:55.701Z,0.00
2019-04-21T20:49:11.102Z,0.00
2019-04-21T20:50:11.384Z,0.00
2019-04-21T20:51:14.586Z,0.00
2019-04-21T20:52:17.275Z,0.00
2019-04-21T20:53:11.200Z,0.00
2019-04-21T20:54:08.598Z,0.00
2019-04-21T20:55:04.820Z,0.00
2019-04-21T20:56:04.697Z,0.00
2019-04-21T20:57:11.372Z,0.00
2019-04-21T20:58:04.310Z,0.00
2019-04-21T20:59:11.306Z,0.00
2019-04-21T21:00:16.850Z,0.00
2019-04-21T21:01:25.398Z,0.00
2019-04-21T21:02:10.264Z,0.00
2019-04-21T21:03:12.053Z,0.00
2019-04-21T21:04:06.161Z,0.00
2019-04-21T21:05:03.006Z,0.00
2019-04-21T21:06:07.621Z,0.00
2019-04-21T21:07:20.839Z,0.00
2019-04-21T21:08:14.934Z,0.00
2019-04-21T21:09:11.714Z,0.00
2019-04-21T21:10:14.110Z,0.00
2019-04-21T21:11:07.149Z,0.00
2019-04-21T21:12:22.283Z,0.00
2019-04-21T21:14:11.760Z,0.00
2019-04-21T21:15:03.983Z,0.00
2019-04-21T21:16:15.175Z,0.00
2019-04-21T21:17:22.138Z,0.00
2019-04-21T21:18:23.982Z,0.00
2019-04-21T21:19:18.735Z,0.00
2019-04-21T21:20:14.413Z,0.00
2019-04-21T21:21:11.389Z,0.00
2019-04-21T21:22:03.937Z,0.00
2019-04-21T21:23:02.812Z,0.00
2019-04-21T21:24:10.148Z,0.00
2019-04-21T21:25:11.657Z,0.00
2019-04-21T21:26:18.781Z,0.00
2019-04-21T21:27:10.462Z,0.00
2019-04-21T21:28:03.443Z,0.00
2019-04-21T21:29:03.960Z,0.00
2019-04-21T21:30:13.218Z,0.00
2019-04-21T21:31:16.424Z,0.00
2019-04-21T21:32:16.574Z,0.00
2019-04-21T21:33:12.722Z,0.00
2019-04-21T21:34:15.319Z,0.00
2019-04-21T21:35:08.277Z,0.00
2019-04-21T21:36:16.636Z,0.00
2019-04-21T21:37:24.941Z,0.00
2019-04-21T21:38:13.552Z,0.00
2019-04-21T21:39:11.416Z,0.00
2019-04-21T21:40:14.251Z,0.00
2019-04-21T21:41:03.685Z,0.00
2019-04-21T21:42:00.947Z,0.00
2019-04-21T21:42:53.336Z,0.00
2019-04-21T21:44:03.458Z,0.00
2019-04-21T21:44:58.593Z,0.00
2019-04-21T21:45:56.171Z,0.00
2019-04-21T21:47:05.797Z,0.00
2019-04-21T21:48:13.522Z,0.00
2019-04-21T21:49:02.030Z,0.00
2019-04-21T21:50:04.435Z,0.00
2019-04-21T21:51:04.300Z,0.00
2019-04-21T21:52:06.091Z,0.00
2019-04-21T21:53:01.931Z,0.00
2019-04-21T21:53:52.852Z,0.00
2019-04-21T21:54:53.799Z,0.00
2019-04-21T21:55:53.044Z,0.00
2019-04-21T21:56:54.377Z,0.00
2019-04-21T21:57:58.101Z,0.00
2019-04-21T21:58:53.871Z,0.00
2019-04-21T21:59:59.026Z,0.00
2019-04-21T22:00:56.677Z,0.00
2019-04-21T22:01:54.292Z,0.00
2019-04-21T22:02:55.421Z,0.00
2019-04-21T22:04:02.516Z,0.00
2019-04-21T22:05:01.415Z,0.00
2019-04-21T22:05:59.697Z,0.00
2019-04-21T22:06:58.239Z,0.00
2019-04-21T22:07:52.320Z,0.00
2019-04-21T22:08:52.311Z,0.00
2019-04-21T22:09:52.442Z,0.00
2019-04-21T22:10:52.997Z,0.00
2019-04-21T22:11:56.253Z,0.00
2019-04-21T22:12:59.815Z,0.00
2019-04-21T22:13:57.645Z,0.00
2019-04-21T22:14:55.202Z,0.00
2019-04-21T22:15:56.673Z,0.00
2019-04-21T22:17:10.971Z,0.00
2019-04-21T22:18:14.799Z,0.00
2019-04-21T22:19:16.982Z,0.00
2019-04-21T22:20:17.089Z,0.00
2019-04-21T22:21:09.387Z,0.00
2019-04-21T22:22:09.283Z,0.00
2019-04-21T22:22:58.364Z,0.00
2019-04-21T22:24:02.339Z,0.00
2019-04-21T22:25:02.705Z,0.00
2019-04-21T22:25:53.386Z,0.00
2019-04-21T22:26:52.658Z,0.00
2019-04-21T22:27:52.029Z,0.00
2019-04-21T22:28:52.086Z,0.00
2019-04-21T22:29:56.973Z,0.00
2019-04-21T22:30:53.661Z,0.00
2019-04-21T22:32:00.253Z,0.00
2019-04-21T22:32:59.643Z,0.00
2019-04-21T22:33:56.401Z,0.00
2019-04-21T22:34:58.287Z,0.00
2019-04-21T22:35:57.976Z,0.00
2019-04-21T22:37:01.400Z,0.00
2019-04-21T22:38:10.203Z,0.00
2019-04-21T22:39:11.954Z,0.00
2019-04-21T22:40:07.130Z,0.00
2019-04-21T22:41:06.025Z,0.00
2019-04-21T22:42:01.813Z,0.00
2019-04-21T22:43:04.872Z,0.00
2019-04-21T22:43:55.232Z,0.00
2019-04-21T22:44:52.388Z,0.00
2019-04-21T22:45:51.817Z,0.00
2019-04-21T22:47:01.473Z,0.00
2019-04-21T22:47:56.276Z,0.00
2019-04-21T22:48:55.990Z,0.00
2019-04-21T22:49:52.717Z,0.00
2019-04-21T22:50:52.688Z,0.00
2019-04-21T22:51:53.717Z,0.00
2019-04-21T22:52:56.706Z,0.00
2019-04-21T22:53:54.295Z,0.00
2019-04-21T22:54:52.699Z,0.00
2019-04-21T22:55:58.722Z,0.00
2019-04-21T22:57:02.571Z,0.00
2019-04-21T22:57:55.237Z,0.00
2019-04-21T22:58:53.011Z,0.00
2019-04-21T22:59:59.358Z,0.00
2019-04-21T23:00:56.201Z,0.00
2019-04-21T23:01:52.615Z,0.00
2019-04-21T23:02:53.943Z,0.00
2019-04-21T23:03:56.866Z,0.00
2019-04-21T23:04:57.649Z,0.00
2019-04-21T23:05:53.701Z,0.00
2019-04-21T23:06:56.600Z,0.00
2019-04-21T23:07:56.676Z,0.00
2019-04-21T23:08:52.956Z,0.00
2019-04-21T23:09:51.495Z,0.00
2019-04-21T23:10:59.191Z,0.00
2019-04-21T23:11:55.813Z,0.00
2019-04-21T23:12:52.169Z,0.00
2019-04-21T23:13:59.928Z,0.00
2019-04-21T23:14:58.488Z,0.00
2019-04-21T23:15:57.038Z,0.00
2019-04-21T23:16:54.271Z,0.00
2019-04-21T23:18:09.051Z,0.00
2019-04-21T23:19:14.321Z,0.00
2019-04-21T23:20:10.295Z,0.00
2019-04-21T23:21:06.164Z,0.00
2019-04-21T23:22:10.188Z,0.00
2019-04-21T23:23:11.886Z,0.00
2019-04-21T23:24:10.132Z,0.00
2019-04-21T23:25:07.496Z,0.00
2019-04-21T23:26:07.441Z,0.00
2019-04-21T23:26:59.802Z,0.00
2019-04-21T23:28:05.128Z,0.00
2019-04-21T23:29:15.523Z,0.00
2019-04-21T23:30:21.339Z,0.00
2019-04-21T23:31:16.662Z,0.00
2019-04-21T23:32:08.537Z,0.00
2019-04-21T23:32:58.321Z,0.00
2019-04-21T23:33:52.447Z,0.00
2019-04-21T23:34:51.185Z,0.00
2019-04-21T23:36:00.276Z,0.00
2019-04-21T23:36:57.418Z,0.00
2019-04-21T23:37:57.731Z,0.00
2019-04-21T23:38:53.178Z,0.00
2019-04-21T23:39:52.179Z,0.00
2019-04-21T23:40:57.794Z,0.00
2019-04-21T23:41:53.488Z,0.00
2019-04-21T23:42:51.281Z,0.00
2019-04-21T23:44:00.611Z,0.00
2019-04-21T23:44:55.207Z,0.00
2019-04-21T23:45:52.126Z,0.00
2019-04-21T23:46:54.914Z,0.00
2019-04-21T23:48:01.901Z,0.00
2019-04-21T23:49:11.657Z,0.00
2019-04-21T23:49:59.633Z,0.00
2019-04-21T23:50:56.579Z,0.00
2019-04-21T23:51:59.305Z,0.00
2019-04-21T23:52:50.792Z,0.00
2019-04-21T23:53:51.267Z,0.00
2019-04-21T23:54:51.487Z,0.00
2019-04-21T23:55:50.752Z,0.00
2019-04-21T23:56:51.739Z,0.00
2019-04-21T23:57:56.046Z,0.00
2019-04-21T23:58:54.975Z,0.00
2019-04-21T23:59:55.109Z,0.00
